Terminal Aerodrome Forecast
Issued by NWS

Home | Current Version | Previous Version | Text Only | Print | Product List | Glossary On
Versions: 1 2 3 4 5 6 7 8 9 10 11 12 13 14 15
000
FTUS45 KABQ 250500
TAFGUP
TAF
KGUP 250525Z 2506/2606 VRB05KT P6SM BKN250
     FM251500 22011KT P6SM BKN250
     FM251700 22018G28KT P6SM BKN200
     FM252100 23025G35KT P6SM BKN200
     FM260200 22015G25KT P6SM BKN200
     FM260400 20010KT P6SM BKN200=

USA.gov is the U.S. government's official web portal to all federal, state and local government web resources and services.